Alferez Fap David Figueroa Fernandini Airport
SPNC : rendu visible

Aérodrome :











RETROUVEZ-NOUS SUR...

 
LOGIN :

S'inscrire | Disclaimer

   EN    FR    IT 

 









Légende :    VFR   VFR Marginal   IFR   IFR Intensif   IFR Très Intensif
Visi : 
Plafond : 
>= 8 km
>= 3000ft
5 à 8 km
1000 à 3000 ft
1500m à 5 km
500 à 1000 ft
800 à 1500m
200 à 500 ft
< 800m
< 200 ft
Symboles :   Orages  Brouillard  Fortes neiges  Fortes précipitations  Vent > 20 kt






- Altitude de l'aérodrome : 6070 ft
- Code IATA : HUU


SPNC - Alferez Fap David Figueroa Fernandini

DERNIER METAR :
  • 111800Z 07004KT 9999 FEW040 BKN120 27/11 Q1020 RMK PP000

METARs EXPIRÉS :
  • 111700Z 07005KT 9999 FEW040 BKN110 24/11 Q1021 RMK PP000
  • 111600Z 07007KT 9999 FEW040 BKN110 22/11 Q1023 RMK PP000

TAF SPNC
Valide du 11 à 18h jusqu'au 12 à 18h UTC


111700Z 1118/1218 06014KT 9999 FEW040 BKN100 TX25/1119Z TN13/1211Z
BECMG 1123/1201 03004KT FEW028 SCT090
FIR SPIM / Amérique du Sud



MET'MAP, la Météo Aéronautique d'un coup d'oeil ! - Copyright ORBIFLY Décembre 2007 - Disclaimer

ORBIFLY MET'MAP TEAM :

Programmation & Développement : Alexandra Zaïnal
Sur une idée originale de : Baudouin d'Aumeries
Assistance à la programmation : Marc-Olivier Méhu
Soutien technique & logistique : Manuel Goepfert

Contact : metmap@orbifly.com




SOURCES & CREDITS :

   NOAA       Earth
Advisory